createdAt,value
2017-08-16T00:02:08.968Z,16.70
2017-08-16T00:04:35.077Z,16.60
2017-08-16T00:07:01.941Z,16.60
2017-08-16T00:09:28.052Z,16.60
2017-08-16T00:11:54.898Z,16.60
2017-08-16T00:14:21.769Z,16.60
2017-08-16T00:16:47.887Z,16.60
2017-08-16T00:19:14.001Z,16.60
2017-08-16T00:21:40.125Z,16.60
2017-08-16T00:24:06.246Z,16.50
2017-08-16T00:26:32.625Z,16.50
2017-08-16T00:28:58.737Z,16.50
2017-08-16T00:31:24.865Z,16.50
2017-08-16T00:33:51.009Z,16.50
2017-08-16T00:36:17.156Z,16.50
2017-08-16T00:38:43.272Z,16.50
2017-08-16T00:41:09.511Z,16.50
2017-08-16T00:43:36.373Z,16.40
2017-08-16T00:46:02.512Z,16.40
2017-08-16T00:48:28.649Z,16.40
2017-08-16T00:50:54.789Z,16.40
2017-08-16T00:53:21.241Z,16.40
2017-08-16T00:55:47.365Z,16.40
2017-08-16T00:58:13.487Z,16.30
2017-08-16T01:00:39.960Z,16.30
2017-08-16T01:03:06.836Z,16.50
2017-08-16T01:05:32.968Z,16.50
2017-08-16T01:07:59.112Z,16.40
2017-08-16T01:10:25.262Z,16.30
2017-08-16T01:12:51.379Z,16.30
2017-08-16T01:15:17.543Z,16.30
2017-08-16T01:17:43.652Z,16.20
2017-08-16T01:20:10.545Z,16.20
2017-08-16T01:22:36.699Z,16.20
2017-08-16T01:25:02.808Z,16.20
2017-08-16T01:27:28.916Z,16.20
2017-08-16T01:29:55.270Z,16.10
2017-08-16T01:32:21.382Z,16.10
2017-08-16T01:34:47.492Z,16.10
2017-08-16T01:37:13.644Z,16.20
2017-08-16T01:39:39.748Z,16.20
2017-08-16T01:42:05.868Z,16.20
2017-08-16T01:44:32.029Z,16.20
2017-08-16T01:46:58.146Z,16.20
2017-08-16T01:49:24.278Z,16.20
2017-08-16T01:51:50.809Z,16.20
2017-08-16T01:54:16.922Z,16.10
2017-08-16T01:56:43.044Z,16.20
2017-08-16T01:59:09.181Z,16.10
2017-08-16T02:01:35.333Z,16.10
2017-08-16T02:04:01.478Z,16.20
2017-08-16T02:06:28.333Z,16.20
2017-08-16T02:08:54.438Z,16.20
2017-08-16T02:11:21.350Z,16.10
2017-08-16T02:13:47.452Z,16.10
2017-08-16T02:16:13.576Z,16.10
2017-08-16T02:18:39.725Z,16.10
2017-08-16T02:21:05.838Z,16.20
2017-08-16T02:23:31.966Z,16.20
2017-08-16T02:25:58.413Z,16.20
2017-08-16T02:28:24.522Z,16.20
2017-08-16T02:30:50.650Z,16.20
2017-08-16T02:33:16.801Z,16.20
2017-08-16T02:35:42.908Z,16.30
2017-08-16T02:38:09.041Z,16.30
2017-08-16T02:40:35.193Z,16.30
2017-08-16T02:43:02.076Z,16.20
2017-08-16T02:45:28.180Z,16.20
2017-08-16T02:47:54.349Z,16.20
2017-08-16T02:50:20.460Z,16.30
2017-08-16T02:52:46.590Z,16.30
2017-08-16T02:55:12.773Z,16.30
2017-08-16T02:57:39.648Z,16.30
2017-08-16T03:00:05.801Z,16.30
2017-08-16T03:02:31.983Z,16.30
2017-08-16T03:04:58.127Z,16.40
2017-08-16T03:07:24.268Z,16.60
2017-08-16T03:09:50.445Z,16.50
2017-08-16T03:12:17.323Z,16.40
2017-08-16T03:14:43.478Z,16.40
2017-08-16T03:17:09.631Z,16.30
2017-08-16T03:19:35.782Z,16.30
2017-08-16T03:22:01.947Z,16.30
2017-08-16T03:24:28.288Z,16.30
2017-08-16T03:26:54.432Z,16.20
2017-08-16T03:29:20.553Z,16.20
2017-08-16T03:31:46.709Z,16.20
2017-08-16T03:34:13.642Z,16.20
2017-08-16T03:36:39.763Z,16.20
2017-08-16T03:39:05.940Z,16.30
2017-08-16T03:41:32.061Z,16.30
2017-08-16T03:43:58.189Z,16.30
2017-08-16T03:46:24.341Z,16.40
2017-08-16T03:48:50.469Z,16.30
2017-08-16T03:51:16.654Z,16.30
2017-08-16T03:53:42.786Z,16.30
2017-08-16T03:56:08.933Z,16.30
2017-08-16T03:58:35.080Z,16.30
2017-08-16T04:01:01.238Z,16.30
2017-08-16T04:03:28.129Z,16.40
2017-08-16T04:05:54.552Z,16.40
2017-08-16T04:08:20.690Z,16.40
2017-08-16T04:10:46.829Z,16.40
2017-08-16T04:13:12.987Z,16.40
2017-08-16T04:15:39.857Z,16.50
2017-08-16T04:18:05.996Z,16.50
2017-08-16T04:20:32.348Z,16.50
2017-08-16T04:22:58.504Z,16.50
2017-08-16T04:25:24.624Z,16.60
2017-08-16T04:27:50.792Z,16.60
2017-08-16T04:30:16.932Z,16.80
2017-08-16T04:32:43.073Z,16.80
2017-08-16T04:35:09.465Z,16.70
2017-08-16T04:37:35.614Z,16.70
2017-08-16T04:40:02.157Z,16.70
2017-08-16T04:42:28.336Z,16.70
2017-08-16T04:44:55.242Z,16.70
2017-08-16T04:47:21.384Z,16.70
2017-08-16T04:49:47.533Z,17.00
2017-08-16T04:52:14.411Z,17.00
2017-08-16T04:54:40.557Z,17.00
2017-08-16T04:57:06.724Z,16.90
2017-08-16T04:59:34.339Z,16.80
2017-08-16T05:02:01.278Z,16.80
2017-08-16T05:04:27.425Z,16.80
2017-08-16T05:06:53.548Z,16.80
2017-08-16T05:09:19.684Z,16.80
2017-08-16T05:11:45.830Z,16.90
2017-08-16T05:14:12.008Z,17.00
2017-08-16T05:16:38.561Z,17.00
2017-08-16T05:19:04.729Z,16.90
2017-08-16T05:21:30.856Z,17.10
2017-08-16T05:23:57.771Z,16.90
2017-08-16T05:26:23.924Z,16.90
2017-08-16T05:28:50.801Z,16.90
2017-08-16T05:31:16.946Z,16.90
2017-08-16T05:33:43.092Z,16.90
2017-08-16T05:36:09.257Z,16.80
2017-08-16T05:38:36.221Z,16.80
2017-08-16T05:41:02.377Z,16.80
2017-08-16T05:43:28.853Z,16.90
2017-08-16T05:45:55.722Z,17.00
2017-08-16T05:48:21.860Z,17.00
2017-08-16T05:50:48.038Z,16.90
2017-08-16T05:53:14.905Z,17.00
2017-08-16T05:55:41.027Z,17.00
2017-08-16T05:58:07.140Z,17.00
2017-08-16T06:00:34.024Z,17.00
2017-08-16T06:03:00.493Z,17.00
2017-08-16T06:05:26.636Z,17.00
2017-08-16T06:07:52.773Z,16.90
2017-08-16T06:10:19.037Z,17.00
2017-08-16T06:12:45.173Z,17.00
2017-08-16T06:15:11.284Z,17.00
2017-08-16T06:17:37.640Z,17.10
2017-08-16T06:20:03.764Z,17.10
2017-08-16T06:22:29.872Z,17.20
2017-08-16T06:24:56.016Z,17.30
2017-08-16T06:27:22.138Z,17.40
2017-08-16T06:29:48.246Z,17.40
2017-08-16T06:32:14.600Z,17.50
2017-08-16T06:34:40.712Z,17.50
2017-08-16T06:37:06.832Z,17.50
2017-08-16T06:39:33.180Z,17.50
2017-08-16T06:41:59.298Z,17.60
2017-08-16T06:44:25.422Z,17.70
2017-08-16T06:46:51.557Z,17.70
2017-08-16T06:49:17.681Z,17.60
2017-08-16T06:51:43.809Z,17.50
2017-08-16T06:54:10.058Z,17.50
2017-08-16T06:56:36.184Z,17.40
2017-08-16T06:59:02.295Z,17.40
2017-08-16T07:01:28.434Z,17.40
2017-08-16T07:03:54.540Z,17.50
2017-08-16T07:06:20.653Z,17.50
2017-08-16T07:08:46.812Z,17.40
2017-08-16T07:11:12.937Z,17.50
2017-08-16T07:13:39.058Z,17.70
2017-08-16T07:16:05.475Z,17.70
2017-08-16T07:18:31.593Z,17.80
2017-08-16T07:20:57.715Z,17.80
2017-08-16T07:23:23.852Z,17.80
2017-08-16T07:25:49.965Z,17.90
2017-08-16T07:28:16.096Z,18.00
2017-08-16T07:30:42.241Z,18.10
2017-08-16T07:33:08.556Z,18.00
2017-08-16T07:35:34.668Z,18.00
2017-08-16T07:38:00.808Z,17.90
2017-08-16T07:40:26.938Z,17.90
2017-08-16T07:42:53.050Z,17.90
2017-08-16T07:45:19.217Z,18.00
2017-08-16T07:47:45.324Z,17.90
2017-08-16T07:50:11.438Z,17.90
2017-08-16T07:52:37.579Z,18.10
2017-08-16T07:55:03.696Z,18.10
2017-08-16T07:57:29.821Z,18.30
2017-08-16T07:59:55.964Z,18.30
2017-08-16T08:02:22.072Z,18.30
2017-08-16T08:04:48.188Z,18.30
2017-08-16T08:07:14.621Z,18.20
2017-08-16T08:09:40.736Z,18.20
2017-08-16T08:12:06.857Z,18.10
2017-08-16T08:14:33.021Z,18.10
2017-08-16T08:16:59.130Z,18.10
2017-08-16T08:19:25.242Z,18.10
2017-08-16T08:21:51.354Z,18.20
2017-08-16T08:24:17.604Z,18.00
2017-08-16T08:26:43.709Z,18.00
2017-08-16T08:29:09.832Z,18.10
2017-08-16T08:31:35.992Z,18.00
2017-08-16T08:34:02.140Z,18.10
2017-08-16T08:36:29.004Z,18.30
2017-08-16T08:38:55.153Z,18.40
2017-08-16T08:41:21.261Z,18.40
2017-08-16T08:43:47.375Z,18.60
2017-08-16T08:46:14.257Z,18.90
2017-08-16T08:48:40.377Z,18.90
2017-08-16T08:51:06.530Z,18.80
2017-08-16T08:53:32.685Z,18.60
2017-08-16T08:55:59.539Z,18.40
2017-08-16T08:58:26.398Z,18.40
2017-08-16T09:00:52.761Z,18.40
2017-08-16T09:03:18.938Z,18.30
2017-08-16T09:05:45.047Z,18.30
2017-08-16T09:08:11.210Z,18.50
2017-08-16T09:10:37.316Z,18.70
2017-08-16T09:13:04.420Z,19.20
2017-08-16T09:15:30.741Z,19.20
2017-08-16T09:17:56.850Z,19.30
2017-08-16T09:20:22.969Z,19.30
2017-08-16T09:22:49.099Z,19.20
2017-08-16T09:25:15.237Z,19.00
2017-08-16T09:27:41.354Z,19.00
2017-08-16T09:30:07.478Z,19.00
2017-08-16T09:32:33.632Z,19.00
2017-08-16T09:35:00.057Z,19.10
2017-08-16T09:37:26.161Z,19.30
2017-08-16T09:39:52.279Z,19.40
2017-08-16T09:42:18.737Z,19.60
2017-08-16T09:44:44.852Z,19.50
2017-08-16T09:47:10.963Z,19.30
2017-08-16T09:49:37.120Z,19.30
2017-08-16T09:52:03.233Z,19.30
2017-08-16T09:54:29.369Z,19.30
2017-08-16T09:56:55.541Z,19.60
2017-08-16T09:59:22.417Z,19.90
2017-08-16T10:01:48.544Z,19.90
2017-08-16T10:04:14.672Z,20.00
2017-08-16T10:06:40.910Z,20.00
2017-08-16T10:09:07.040Z,20.10
2017-08-16T10:11:33.155Z,20.20
2017-08-16T10:13:59.384Z,20.20
2017-08-16T10:16:25.734Z,20.20
2017-08-16T10:18:51.846Z,20.20
2017-08-16T10:21:17.966Z,20.40
2017-08-16T10:23:44.123Z,20.70
2017-08-16T10:26:10.280Z,20.80
2017-08-16T10:28:37.137Z,21.00
2017-08-16T10:31:03.248Z,20.90
2017-08-16T10:33:30.349Z,21.10
2017-08-16T10:35:56.463Z,21.10
2017-08-16T10:38:22.573Z,21.30
2017-08-16T10:40:48.929Z,21.40
2017-08-16T10:43:15.050Z,21.60
2017-08-16T10:45:41.152Z,21.50
2017-08-16T10:48:07.286Z,21.30
2017-08-16T10:50:33.429Z,20.90
2017-08-16T10:52:59.557Z,20.60
2017-08-16T10:55:25.717Z,20.40
2017-08-16T10:57:52.576Z,20.70
2017-08-16T11:00:19.446Z,20.90
2017-08-16T11:02:45.584Z,20.90
2017-08-16T11:05:11.738Z,21.20
2017-08-16T11:07:37.877Z,21.50
2017-08-16T11:10:04.277Z,21.40
2017-08-16T11:12:30.392Z,21.10
2017-08-16T11:14:56.519Z,20.80
2017-08-16T11:17:22.663Z,20.80
2017-08-16T11:19:48.781Z,21.00
2017-08-16T11:22:14.884Z,21.00
2017-08-16T11:24:41.050Z,21.10
2017-08-16T11:27:07.168Z,21.10
2017-08-16T11:29:33.280Z,21.20
2017-08-16T11:31:59.397Z,21.30
2017-08-16T11:34:25.510Z,21.60
2017-08-16T11:36:51.760Z,21.70
2017-08-16T11:39:17.872Z,21.40
2017-08-16T11:41:44.006Z,21.20
2017-08-16T11:44:10.129Z,21.10
2017-08-16T11:46:36.336Z,21.20
2017-08-16T11:49:02.490Z,21.40
2017-08-16T11:51:28.625Z,21.30
2017-08-16T11:53:54.740Z,21.40
2017-08-16T11:56:20.893Z,21.60
2017-08-16T11:58:47.003Z,21.70
2017-08-16T12:01:13.130Z,21.70
2017-08-16T12:03:39.261Z,21.80
2017-08-16T12:06:05.409Z,22.10
2017-08-16T12:08:32.630Z,21.70
2017-08-16T12:10:59.028Z,21.70
2017-08-16T12:13:25.150Z,21.70
2017-08-16T12:15:51.311Z,22.30
2017-08-16T12:18:17.467Z,23.50
2017-08-16T12:20:43.588Z,25.20
2017-08-16T12:23:10.108Z,24.70
2017-08-16T12:25:36.228Z,23.60
2017-08-16T12:28:02.344Z,23.40
2017-08-16T12:30:28.504Z,24.20
2017-08-16T12:32:54.908Z,25.30
2017-08-16T12:35:21.021Z,25.50
2017-08-16T12:37:47.185Z,25.80
2017-08-16T12:40:13.321Z,26.50
2017-08-16T12:42:40.168Z,27.40
2017-08-16T12:45:07.201Z,27.50
2017-08-16T12:47:34.081Z,27.70
2017-08-16T12:50:00.188Z,27.60
2017-08-16T12:52:27.094Z,29.40
2017-08-16T12:54:53.200Z,29.30
2017-08-16T12:57:19.320Z,28.80
2017-08-16T12:59:45.468Z,28.90
2017-08-16T13:02:11.581Z,29.50
2017-08-16T13:04:37.684Z,29.50
2017-08-16T13:07:04.040Z,30.10
2017-08-16T13:09:30.170Z,29.90
2017-08-16T13:11:56.364Z,29.50
2017-08-16T13:14:22.833Z,30.50
2017-08-16T13:16:48.944Z,30.30
2017-08-16T13:19:15.067Z,31.00
2017-08-16T13:21:41.409Z,30.50
2017-08-16T13:24:07.532Z,30.10
2017-08-16T13:26:33.665Z,29.80
2017-08-16T13:28:59.772Z,30.10
2017-08-16T13:31:25.907Z,30.30
2017-08-16T13:33:52.751Z,29.40
2017-08-16T13:36:18.900Z,30.70
2017-08-16T13:38:45.018Z,31.30
2017-08-16T13:41:11.146Z,32.10
2017-08-16T13:43:37.260Z,31.80
2017-08-16T13:46:03.401Z,31.60
2017-08-16T13:48:29.540Z,32.00
2017-08-16T13:50:56.403Z,31.50
2017-08-16T13:53:22.559Z,31.50
2017-08-16T13:55:48.677Z,32.00
2017-08-16T13:58:14.794Z,32.40
2017-08-16T14:00:40.938Z,31.50
2017-08-16T14:03:07.071Z,31.40
2017-08-16T14:05:33.176Z,31.80
2017-08-16T14:07:59.640Z,30.80
2017-08-16T14:10:25.776Z,30.80
2017-08-16T14:12:51.913Z,32.10
2017-08-16T14:15:18.055Z,32.50
2017-08-16T14:17:44.913Z,32.10
2017-08-16T14:20:11.032Z,32.10
2017-08-16T14:22:37.934Z,28.00
2017-08-16T14:25:04.054Z,27.90
2017-08-16T14:27:30.174Z,27.00
2017-08-16T14:29:56.309Z,26.20
2017-08-16T14:32:22.443Z,27.20
2017-08-16T14:34:48.674Z,28.20
2017-08-16T14:37:14.909Z,29.50
2017-08-16T14:39:41.034Z,28.80
2017-08-16T14:42:07.185Z,27.80
2017-08-16T14:44:34.056Z,25.80
2017-08-16T14:47:00.185Z,25.80
2017-08-16T14:49:26.284Z,25.40
2017-08-16T14:51:52.440Z,24.90
2017-08-16T14:54:18.561Z,24.40
2017-08-16T14:56:44.671Z,24.60
2017-08-16T14:59:10.815Z,24.20
2017-08-16T15:01:36.930Z,24.20
2017-08-16T15:04:03.050Z,24.00
2017-08-16T15:06:29.206Z,23.90
2017-08-16T15:08:55.321Z,23.50
2017-08-16T15:11:21.444Z,23.40
2017-08-16T15:13:47.583Z,23.00
2017-08-16T15:16:13.698Z,22.90
2017-08-16T15:18:39.853Z,22.90
2017-08-16T15:21:05.997Z,23.00
2017-08-16T15:23:32.883Z,23.10
2017-08-16T15:25:59.014Z,23.10
2017-08-16T15:28:25.190Z,23.00
2017-08-16T15:30:51.299Z,23.20
2017-08-16T15:33:17.421Z,23.30
2017-08-16T15:35:43.589Z,23.70
2017-08-16T15:38:09.704Z,23.60
2017-08-16T15:40:36.580Z,23.00
2017-08-16T15:43:03.040Z,23.00
2017-08-16T15:45:29.152Z,23.00
2017-08-16T15:47:55.265Z,22.80
2017-08-16T15:50:21.399Z,22.60
2017-08-16T15:52:47.521Z,22.50
2017-08-16T15:55:13.642Z,22.30
2017-08-16T15:57:39.774Z,22.20
2017-08-16T16:00:05.916Z,22.20
2017-08-16T16:02:32.113Z,22.10
2017-08-16T16:04:58.220Z,22.00
2017-08-16T16:07:24.338Z,21.90
2017-08-16T16:09:51.444Z,21.80
2017-08-16T16:12:17.548Z,21.80
2017-08-16T16:14:43.724Z,21.90
2017-08-16T16:17:10.252Z,21.80
2017-08-16T16:19:36.384Z,21.70
2017-08-16T16:22:02.505Z,21.60
2017-08-16T16:24:28.672Z,21.50
2017-08-16T16:26:54.808Z,21.50
2017-08-16T16:29:20.938Z,21.50
2017-08-16T16:31:47.065Z,21.50
2017-08-16T16:34:13.217Z,21.40
2017-08-16T16:36:39.341Z,21.30
2017-08-16T16:39:05.460Z,21.30
2017-08-16T16:41:32.051Z,21.20
2017-08-16T16:43:58.181Z,21.10
2017-08-16T16:46:24.301Z,21.10
2017-08-16T16:48:50.475Z,21.00
2017-08-16T16:51:16.594Z,21.00
2017-08-16T16:53:42.700Z,20.90
2017-08-16T16:56:08.869Z,20.90
2017-08-16T16:58:35.002Z,20.90
2017-08-16T17:01:01.136Z,20.80
2017-08-16T17:03:27.293Z,20.90
2017-08-16T17:05:53.413Z,20.80
2017-08-16T17:08:19.541Z,20.70
2017-08-16T17:10:46.022Z,20.60
2017-08-16T17:13:12.157Z,20.60
2017-08-16T17:15:38.268Z,20.50
2017-08-16T17:18:04.702Z,20.50
2017-08-16T17:20:30.837Z,20.60
2017-08-16T17:22:56.970Z,20.60
2017-08-16T17:25:23.260Z,20.50
2017-08-16T17:27:49.381Z,20.60
2017-08-16T17:30:15.526Z,20.60
2017-08-16T17:32:41.663Z,20.50
2017-08-16T17:35:07.799Z,20.50
2017-08-16T17:37:33.908Z,20.50
2017-08-16T17:40:00.340Z,20.40
2017-08-16T17:42:26.477Z,20.30
2017-08-16T17:44:52.590Z,20.40
2017-08-16T17:47:18.824Z,20.20
2017-08-16T17:49:44.943Z,20.10
2017-08-16T17:52:11.863Z,20.10
2017-08-16T17:54:38.012Z,20.10
2017-08-16T17:57:04.150Z,20.00
2017-08-16T17:59:30.270Z,20.00
2017-08-16T18:01:56.709Z,19.90
2017-08-16T18:04:22.839Z,19.80
2017-08-16T18:06:48.964Z,19.70
2017-08-16T18:09:15.500Z,19.80
2017-08-16T18:11:41.617Z,19.80
2017-08-16T18:14:07.749Z,19.60
2017-08-16T18:16:33.875Z,19.60
2017-08-16T18:18:59.999Z,19.60
2017-08-16T18:21:26.166Z,19.60
2017-08-16T18:23:53.024Z,19.50
2017-08-16T18:26:19.161Z,19.50
2017-08-16T18:28:45.300Z,19.30
2017-08-16T18:31:11.430Z,19.20
2017-08-16T18:33:37.618Z,19.10
2017-08-16T18:36:03.745Z,19.20
2017-08-16T18:38:29.902Z,18.90
2017-08-16T18:40:56.022Z,18.90
2017-08-16T18:43:22.498Z,19.00
2017-08-16T18:45:48.652Z,18.90
2017-08-16T18:48:15.525Z,18.40
2017-08-16T18:50:41.649Z,18.40
2017-08-16T18:53:07.923Z,18.30
2017-08-16T18:55:34.042Z,18.40
2017-08-16T18:58:00.172Z,18.30
2017-08-16T19:00:26.314Z,18.50
2017-08-16T19:02:53.181Z,18.40
2017-08-16T19:05:19.304Z,18.40
2017-08-16T19:07:45.676Z,18.40
2017-08-16T19:10:11.794Z,18.40
2017-08-16T19:12:37.923Z,18.40
2017-08-16T19:15:04.101Z,18.20
2017-08-16T19:17:30.218Z,18.10
2017-08-16T19:19:57.096Z,17.90
2017-08-16T19:22:23.254Z,17.90
2017-08-16T19:24:49.372Z,17.70
2017-08-16T19:27:15.518Z,17.70
2017-08-16T19:29:41.838Z,17.60
2017-08-16T19:32:07.953Z,17.60
2017-08-16T19:34:34.077Z,17.70
2017-08-16T19:37:00.221Z,17.70
2017-08-16T19:39:26.350Z,17.70
2017-08-16T19:41:52.472Z,17.60
2017-08-16T19:44:18.759Z,17.50
2017-08-16T19:46:44.885Z,17.40
2017-08-16T19:49:11.013Z,17.40
2017-08-16T19:51:37.557Z,17.30
2017-08-16T19:54:03.714Z,17.30
2017-08-16T19:56:29.843Z,17.20
2017-08-16T19:58:56.027Z,17.30
2017-08-16T20:01:22.153Z,17.40
2017-08-16T20:03:48.289Z,17.20
2017-08-16T20:06:14.462Z,17.00
2017-08-16T20:08:41.966Z,17.00
2017-08-16T20:11:08.075Z,17.00
2017-08-16T20:13:34.217Z,16.90
2017-08-16T20:16:00.344Z,17.00
2017-08-16T20:18:26.505Z,17.00
2017-08-16T20:20:52.620Z,16.80
2017-08-16T20:23:18.749Z,16.70
2017-08-16T20:25:44.880Z,16.70
2017-08-16T20:28:11.000Z,16.80
2017-08-16T20:30:37.130Z,16.60
2017-08-16T20:33:03.289Z,16.60
2017-08-16T20:35:30.157Z,16.30
2017-08-16T20:37:56.283Z,16.30
2017-08-16T20:40:22.405Z,16.30
2017-08-16T20:42:48.512Z,16.30
2017-08-16T20:45:15.457Z,16.40
2017-08-16T20:47:42.308Z,16.20
2017-08-16T20:50:08.426Z,16.20
2017-08-16T20:52:34.594Z,16.00
2017-08-16T20:55:00.727Z,16.10
2017-08-16T20:57:26.849Z,16.10
2017-08-16T20:59:53.021Z,16.10
2017-08-16T21:02:19.885Z,15.90
2017-08-16T21:04:46.001Z,15.90
2017-08-16T21:07:12.906Z,15.90
2017-08-16T21:09:39.029Z,15.90
2017-08-16T21:12:05.147Z,16.00
2017-08-16T21:14:31.320Z,15.90
2017-08-16T21:16:58.164Z,16.00
2017-08-16T21:19:25.016Z,15.80
2017-08-16T21:21:51.157Z,15.80
2017-08-16T21:24:17.282Z,15.70
2017-08-16T21:26:43.444Z,15.50
2017-08-16T21:29:09.590Z,15.50
2017-08-16T21:31:35.741Z,15.50
2017-08-16T21:34:01.898Z,15.50
2017-08-16T21:36:28.028Z,15.50
2017-08-16T21:38:54.153Z,15.50
2017-08-16T21:41:20.317Z,15.30
2017-08-16T21:43:53.405Z,15.30
2017-08-16T21:46:20.157Z,15.40
2017-08-16T21:48:47.024Z,15.20
2017-08-16T21:51:13.169Z,15.20
2017-08-16T21:53:39.317Z,15.10
2017-08-16T21:56:05.441Z,15.10
2017-08-16T21:58:31.560Z,15.20
2017-08-16T22:00:57.710Z,15.30
2017-08-16T22:03:23.815Z,15.30
2017-08-16T22:05:49.933Z,15.40
2017-08-16T22:08:16.079Z,15.40
2017-08-16T22:10:42.185Z,15.30
2017-08-16T22:13:08.296Z,15.30
2017-08-16T22:15:34.435Z,15.20
2017-08-16T22:18:00.561Z,15.10
2017-08-16T22:20:26.701Z,15.10
2017-08-16T22:22:52.861Z,15.00
2017-08-16T22:25:19.722Z,14.90
2017-08-16T22:27:45.846Z,14.90
2017-08-16T22:30:12.005Z,14.80
2017-08-16T22:32:38.116Z,14.60
2017-08-16T22:35:04.250Z,14.50
2017-08-16T22:37:30.600Z,14.50
2017-08-16T22:39:56.730Z,14.50
2017-08-16T22:42:22.841Z,14.60
2017-08-16T22:44:48.961Z,14.50
2017-08-16T22:47:15.078Z,14.60
2017-08-16T22:49:41.432Z,14.70
2017-08-16T22:52:07.544Z,14.70
2017-08-16T22:54:33.661Z,14.70
2017-08-16T22:56:59.901Z,14.60
2017-08-16T22:59:26.008Z,14.60
2017-08-16T23:01:52.121Z,14.50
2017-08-16T23:04:18.266Z,14.50
2017-08-16T23:06:44.398Z,14.60
2017-08-16T23:09:10.525Z,14.60
2017-08-16T23:11:36.972Z,14.40
2017-08-16T23:14:03.080Z,14.30
2017-08-16T23:16:29.200Z,14.30
2017-08-16T23:18:55.353Z,14.40
2017-08-16T23:21:21.461Z,14.30
2017-08-16T23:23:47.572Z,14.30
2017-08-16T23:26:13.732Z,14.20
2017-08-16T23:28:39.852Z,14.40
2017-08-16T23:31:05.964Z,14.50
2017-08-16T23:33:32.116Z,14.40
2017-08-16T23:35:58.238Z,14.30
2017-08-16T23:38:24.364Z,14.20
2017-08-16T23:40:50.511Z,14.30
2017-08-16T23:43:17.381Z,14.10
2017-08-16T23:45:43.500Z,14.10
2017-08-16T23:48:10.421Z,13.70
2017-08-16T23:50:36.542Z,13.70
2017-08-16T23:53:02.649Z,13.70
2017-08-16T23:55:28.781Z,14.00
2017-08-16T23:57:54.892Z,14.30
